Gala Trio — 3FCR8 — position and weather

sailwx.info

Track history (hours):
 
Tides and Currents Weather Stations Pressure Air Temp Water Temp Dewpoint Dewpoint Depression Visibility Wind Speed Wind Dir Waves Ship Positions

Gala Trio

Last reported at 2017-Nov-17 04:23 UTC. Time now 2017-Nov-19 02:48 UTC.
Position N 45°30' E 036°44'.

Length 82 m; draft 3 m.

Type: Ship. MMSI: 351300000.

Date/timePositionNaut miles runAvg speedWind from/ knotsBaromVisibWave heightAir tempDewpointWater temp
2017-Nov-17 04:23N 45°30' E 036°44'3 7.7
2017-Nov-17 04:00N 45°28' E 036°42'4 7.9
2017-Nov-17 03:30N 45°24' E 036°41'3 6.7
2017-Nov-17 03:00N 45°21' E 036°39'4 7.5
2017-Nov-17 02:30N 45°19' E 036°34'4 6.2
2017-Nov-17 01:50N 45°17' E 036°29'3 5.0
2017-Nov-17 01:15N 45°14' E 036°29'2 6.6
2017-Nov-17 01:01N 45°13' E 036°31'0 0.0
2017-Nov-16 14:17N 45°13' E 036°31'416 8.0
2017-Nov-14 10:30N 40°59' E 028°60'3 4.8
2017-Nov-14 09:52N 40°56' E 029°02'2 4.5
2017-Nov-14 09:30N 40°55' E 029°04'3 4.8
2017-Nov-14 08:59N 40°54' E 029°07'3 5.6
2017-Nov-14 08:30N 40°53' E 029°10'1 2.1
2017-Nov-14 07:49N 40°53' E 029°12'0 0.0
2017-Nov-14 07:25N 40°53' E 029°12'0 0.0
2017-Nov-14 06:55N 40°53' E 029°12'0 0.0
2017-Nov-14 06:13N 40°53' E 029°12'0 0.0
2017-Nov-14 05:55N 40°53' E 029°12'0 0.0
2017-Nov-14 05:19N 40°53' E 029°12'0 0.0
2017-Nov-14 04:55N 40°53' E 029°12'0 0.0
2017-Nov-14 04:25N 40°53' E 029°12'0 0.0
2017-Nov-14 03:49N 40°53' E 029°12'0 0.0
2017-Nov-14 03:25N 40°53' E 029°12'0 0.0
2017-Nov-14 02:55N 40°53' E 029°12'0 0.0
2017-Nov-14 02:25N 40°53' E 029°12'0 0.0
2017-Nov-14 01:55N 40°53' E 029°12'0 0.1
2017-Nov-14 01:19N 40°53' E 029°12'0 0.0
2017-Nov-14 00:55N 40°53' E 029°12'0 0.0
2017-Nov-14 00:25N 40°53' E 029°12'0 0.0
2017-Nov-13 23:31N 40°53' E 029°12'0 0.0
2017-Nov-13 23:25N 40°53' E 029°12'0 0.0
2017-Nov-13 22:55N 40°53' E 029°12'0 0.0
2017-Nov-13 22:25N 40°53' E 029°12'0 0.0
2017-Nov-13 21:43N 40°53' E 029°12'  
2017-Nov-10 04:48N 40°50' E 029°16'0 0.0
2017-Nov-10 04:24N 40°50' E 029°16'0 0.0
2017-Nov-09 22:12N 40°50' E 029°16'0 0.0
2017-Nov-09 21:48N 40°50' E 029°16'  
Track history (hours):
 
Tides and Currents Weather Stations Pressure Air Temp Water Temp Dewpoint Dewpoint Depression Visibility Wind Speed Wind Dir Waves Ship Positions

Gala Trio

Last reported at 2017-Nov-17 04:23 UTC. Time now 2017-Nov-19 02:48 UTC.
Position N 45°30' E 036°44'.

Length 82 m; draft 3 m.

Type: Ship. MMSI: 351300000.

Date/timePositionNaut miles runAvg speedWind from/ knotsBaromVisibWave heightAir tempDewpointWater temp
2017-Nov-17 04:23N 45°30' E 036°44'3 7.7
2017-Nov-17 04:00N 45°28' E 036°42'4 7.9
2017-Nov-17 03:30N 45°24' E 036°41'3 6.7
2017-Nov-17 03:00N 45°21' E 036°39'4 7.5
2017-Nov-17 02:30N 45°19' E 036°34'4 6.2
2017-Nov-17 01:50N 45°17' E 036°29'3 5.0
2017-Nov-17 01:15N 45°14' E 036°29'2 6.6
2017-Nov-17 01:01N 45°13' E 036°31'0 0.0
2017-Nov-16 14:17N 45°13' E 036°31'416 8.0
2017-Nov-14 10:30N 40°59' E 028°60'3 4.8
2017-Nov-14 09:52N 40°56' E 029°02'2 4.5
2017-Nov-14 09:30N 40°55' E 029°04'3 4.8
2017-Nov-14 08:59N 40°54' E 029°07'3 5.6
2017-Nov-14 08:30N 40°53' E 029°10'1 2.1
2017-Nov-14 07:49N 40°53' E 029°12'0 0.0
2017-Nov-14 07:25N 40°53' E 029°12'0 0.0
2017-Nov-14 06:55N 40°53' E 029°12'0 0.0
2017-Nov-14 06:13N 40°53' E 029°12'0 0.0
2017-Nov-14 05:55N 40°53' E 029°12'0 0.0
2017-Nov-14 05:19N 40°53' E 029°12'0 0.0
2017-Nov-14 04:55N 40°53' E 029°12'0 0.0
2017-Nov-14 04:25N 40°53' E 029°12'0 0.0
2017-Nov-14 03:49N 40°53' E 029°12'0 0.0
2017-Nov-14 03:25N 40°53' E 029°12'0 0.0
2017-Nov-14 02:55N 40°53' E 029°12'0 0.0
2017-Nov-14 02:25N 40°53' E 029°12'0 0.0
2017-Nov-14 01:55N 40°53' E 029°12'0 0.1
2017-Nov-14 01:19N 40°53' E 029°12'0 0.0
2017-Nov-14 00:55N 40°53' E 029°12'0 0.0
2017-Nov-14 00:25N 40°53' E 029°12'0 0.0
2017-Nov-13 23:31N 40°53' E 029°12'0 0.0
2017-Nov-13 23:25N 40°53' E 029°12'0 0.0
2017-Nov-13 22:55N 40°53' E 029°12'0 0.0
2017-Nov-13 22:25N 40°53' E 029°12'0 0.0
2017-Nov-13 21:43N 40°53' E 029°12'  
2017-Nov-10 04:48N 40°50' E 029°16'0 0.0
2017-Nov-10 04:24N 40°50' E 029°16'0 0.0
2017-Nov-09 22:12N 40°50' E 029°16'0 0.0
2017-Nov-09 21:48N 40°50' E 029°16'  

Dump ship's entire track history